createdAt,value
2023-05-08T00:00:37.132Z,27.51
2023-05-08T00:01:37.181Z,27.47
2023-05-08T00:02:37.252Z,27.48
2023-05-08T00:03:37.336Z,27.47
2023-05-08T00:04:37.344Z,27.50
2023-05-08T00:05:37.307Z,27.48
2023-05-08T00:06:37.342Z,27.44
2023-05-08T00:07:37.393Z,27.49
2023-05-08T00:08:37.445Z,27.51
2023-05-08T00:09:37.482Z,27.50
2023-05-08T00:10:37.484Z,27.51
2023-05-08T00:11:37.525Z,27.48
2023-05-08T00:12:37.577Z,27.53
2023-05-08T00:13:37.608Z,27.47
2023-05-08T00:14:37.644Z,27.48
2023-05-08T00:15:37.654Z,27.53
2023-05-08T00:16:37.765Z,27.49
2023-05-08T00:17:37.769Z,27.47
2023-05-08T00:18:37.739Z,27.53
2023-05-08T00:19:37.768Z,27.47
2023-05-08T00:20:37.853Z,27.51
2023-05-08T00:21:37.869Z,27.46
2023-05-08T00:22:37.868Z,27.49
2023-05-08T00:23:37.953Z,27.48
2023-05-08T00:24:37.920Z,27.48
2023-05-08T00:25:37.992Z,27.46
2023-05-08T00:26:37.995Z,27.48
2023-05-08T00:27:38.051Z,27.53
2023-05-08T00:28:38.091Z,27.49
2023-05-08T00:29:38.090Z,27.51
2023-05-08T00:30:38.131Z,27.48
2023-05-08T00:31:38.213Z,27.48
2023-05-08T00:32:38.243Z,27.48
2023-05-08T00:33:38.315Z,27.45
2023-05-08T00:34:38.311Z,27.46
2023-05-08T00:35:38.292Z,27.52
2023-05-08T00:36:38.303Z,27.49
2023-05-08T00:37:38.362Z,27.49
2023-05-08T00:38:38.389Z,27.52
2023-05-08T00:39:38.473Z,27.48
2023-05-08T00:40:38.476Z,27.49
2023-05-08T00:41:38.507Z,27.49
2023-05-08T00:42:38.595Z,27.52
2023-05-08T00:43:38.609Z,27.46
2023-05-08T00:44:38.663Z,27.52
2023-05-08T00:45:38.666Z,27.51
2023-05-08T00:46:38.785Z,27.48
2023-05-08T00:47:38.751Z,27.51
2023-05-08T00:48:38.774Z,27.52
2023-05-08T00:49:38.845Z,27.55
2023-05-08T00:50:38.863Z,27.50
2023-05-08T00:51:38.851Z,27.48
2023-05-08T00:52:38.918Z,27.52
2023-05-08T00:53:38.979Z,27.48
2023-05-08T00:54:38.983Z,27.50
2023-05-08T00:55:39.036Z,27.52
2023-05-08T00:56:39.055Z,27.52
2023-05-08T00:57:39.052Z,27.49
2023-05-08T00:58:39.111Z,27.50
2023-05-08T00:59:39.175Z,27.49
2023-05-08T01:00:39.231Z,27.47
2023-05-08T01:01:39.325Z,27.53
2023-05-08T01:02:39.367Z,27.53
2023-05-08T01:03:39.485Z,27.49
2023-05-08T01:04:39.372Z,27.47
2023-05-08T01:05:39.371Z,27.53
2023-05-08T01:06:39.436Z,27.45
2023-05-08T01:07:39.459Z,27.53
2023-05-08T01:08:39.500Z,27.53
2023-05-08T01:09:39.545Z,27.50
2023-05-08T01:10:39.608Z,27.49
2023-05-08T01:11:39.632Z,27.50
2023-05-08T01:12:39.746Z,27.50
2023-05-08T01:13:39.733Z,27.56
2023-05-08T01:14:39.743Z,27.49
2023-05-08T01:15:39.858Z,27.50
2023-05-08T01:16:39.858Z,27.50
2023-05-08T01:17:39.877Z,27.52
2023-05-08T01:18:39.973Z,27.56
2023-05-08T01:19:39.957Z,27.50
2023-05-08T01:20:40.034Z,27.52
2023-05-08T01:21:40.047Z,27.56
2023-05-08T01:22:40.079Z,27.49
2023-05-08T01:23:40.115Z,27.54
2023-05-08T01:24:40.182Z,27.47
2023-05-08T01:25:40.244Z,27.48
2023-05-08T01:26:40.279Z,27.53
2023-05-08T01:27:40.284Z,27.54
2023-05-08T01:28:40.395Z,27.54
2023-05-08T01:29:40.416Z,27.55
2023-05-08T01:30:40.444Z,27.54
2023-05-08T01:31:40.526Z,27.53
2023-05-08T01:32:40.606Z,27.48
2023-05-08T01:33:40.660Z,27.53
2023-05-08T01:34:40.642Z,27.53
2023-05-08T01:35:40.679Z,27.55
2023-05-08T01:36:40.728Z,27.54
2023-05-08T01:37:40.787Z,27.54
2023-05-08T01:38:40.815Z,27.54
2023-05-08T01:39:40.836Z,27.51
2023-05-08T01:40:40.892Z,27.55
2023-05-08T01:41:41.051Z,27.55
2023-05-08T01:42:41.017Z,27.54
2023-05-08T01:43:41.047Z,27.58
2023-05-08T01:44:41.083Z,27.54
2023-05-08T01:45:41.129Z,27.60
2023-05-08T01:46:41.205Z,27.53
2023-05-08T01:47:41.278Z,27.54
2023-05-08T01:48:41.280Z,27.57
2023-05-08T01:49:41.320Z,27.57
2023-05-08T01:50:41.363Z,27.54
2023-05-08T01:51:41.417Z,27.54
2023-05-08T01:52:41.482Z,27.57
2023-05-08T01:53:41.553Z,27.55
2023-05-08T01:54:41.600Z,27.54
2023-05-08T01:55:41.608Z,27.57
2023-05-08T01:56:41.667Z,27.55
2023-05-08T01:57:41.757Z,27.57
2023-05-08T01:58:41.780Z,27.56
2023-05-08T01:59:41.849Z,27.57
2023-05-08T02:00:41.902Z,27.57
2023-05-08T02:01:41.915Z,27.56
2023-05-08T02:02:42.123Z,27.57
2023-05-08T02:03:42.111Z,27.56
2023-05-08T02:04:42.073Z,27.58
2023-05-08T02:05:42.137Z,27.58
2023-05-08T02:06:42.166Z,27.56
2023-05-08T02:07:42.318Z,27.55
2023-05-08T02:08:42.287Z,27.55
2023-05-08T02:09:42.346Z,27.55
2023-05-08T02:10:42.390Z,27.55
2023-05-08T02:11:42.441Z,27.58
2023-05-08T02:12:42.578Z,27.55
2023-05-08T02:13:42.569Z,27.56
2023-05-08T02:14:42.615Z,27.56
2023-05-08T02:15:42.659Z,27.55
2023-05-08T02:16:42.780Z,27.59
2023-05-08T02:17:42.785Z,27.55
2023-05-08T02:18:42.809Z,27.58
2023-05-08T02:19:42.868Z,27.59
2023-05-08T02:20:42.948Z,27.60
2023-05-08T02:21:42.965Z,27.60
2023-05-08T02:22:43.043Z,27.58
2023-05-08T02:23:43.092Z,27.56
2023-05-08T02:24:43.128Z,27.59
2023-05-08T02:25:43.215Z,27.59
2023-05-08T02:26:43.251Z,27.53
2023-05-08T02:27:43.301Z,27.57
2023-05-08T02:28:43.359Z,27.63
2023-05-08T02:29:43.415Z,27.56
2023-05-08T02:30:43.457Z,27.57
2023-05-08T02:31:43.536Z,27.57
2023-05-08T02:32:43.619Z,27.60
2023-05-08T02:33:43.625Z,27.62
2023-05-08T02:34:51.417Z,27.59
2023-05-08T02:35:44.651Z,27.60
2023-05-08T02:36:43.705Z,27.56
2023-05-08T02:37:43.647Z,27.59
2023-05-08T02:38:43.649Z,27.55
2023-05-08T02:39:43.640Z,27.59
2023-05-08T02:40:43.622Z,27.62
2023-05-08T02:41:43.633Z,27.62
2023-05-08T02:42:43.617Z,27.59
2023-05-08T02:43:43.608Z,27.54
2023-05-08T02:44:43.583Z,27.61
2023-05-08T02:45:43.637Z,27.58
2023-05-08T02:46:43.688Z,27.57
2023-05-08T02:47:43.801Z,27.58
2023-05-08T02:48:43.816Z,27.54
2023-05-08T02:49:43.850Z,27.63
2023-05-08T02:50:43.938Z,27.52
2023-05-08T02:51:43.966Z,27.59
2023-05-08T02:52:44.001Z,27.57
2023-05-08T02:53:44.093Z,27.60
2023-05-08T02:54:44.095Z,27.56
2023-05-08T02:55:44.189Z,27.60
2023-05-08T02:56:44.247Z,27.59
2023-05-08T02:57:44.282Z,27.57
2023-05-08T02:58:44.312Z,27.59
2023-05-08T02:59:44.356Z,27.59
2023-05-08T03:00:44.394Z,27.57
2023-05-08T03:01:44.499Z,27.64
2023-05-08T03:02:44.661Z,27.60
2023-05-08T03:03:44.883Z,27.60
2023-05-08T03:04:44.626Z,27.61
2023-05-08T03:05:44.666Z,27.62
2023-05-08T03:06:44.727Z,27.57
2023-05-08T03:07:44.774Z,27.57
2023-05-08T03:08:44.803Z,27.58
2023-05-08T03:09:44.890Z,27.57
2023-05-08T03:10:44.961Z,27.58
2023-05-08T03:11:44.998Z,27.60
2023-05-08T03:12:45.118Z,27.64
2023-05-08T03:13:45.116Z,27.63
2023-05-08T03:14:45.244Z,27.60
2023-05-08T03:15:45.243Z,27.60
2023-05-08T03:16:45.270Z,27.61
2023-05-08T03:17:45.342Z,27.63
2023-05-08T03:18:45.379Z,27.62
2023-05-08T03:19:45.415Z,27.60
2023-05-08T03:20:45.484Z,27.63
2023-05-08T03:21:45.527Z,27.61
2023-05-08T03:22:45.583Z,27.63
2023-05-08T03:23:45.627Z,27.63
2023-05-08T03:24:45.707Z,27.65
2023-05-08T03:25:45.738Z,27.64
2023-05-08T03:26:45.797Z,27.66
2023-05-08T03:27:45.816Z,27.61
2023-05-08T03:28:45.898Z,27.64
2023-05-08T03:29:45.910Z,27.63
2023-05-08T03:30:45.955Z,27.64
2023-05-08T03:31:46.102Z,27.58
2023-05-08T03:32:46.124Z,27.61
2023-05-08T03:33:46.128Z,27.63
2023-05-08T03:34:46.210Z,27.61
2023-05-08T03:35:46.297Z,27.65
2023-05-08T03:36:46.291Z,27.61
2023-05-08T03:37:46.342Z,27.61
2023-05-08T03:38:46.394Z,27.60
2023-05-08T03:39:46.433Z,27.55
2023-05-08T03:40:46.468Z,27.59
2023-05-08T03:41:46.547Z,27.59
2023-05-08T03:42:46.615Z,27.61
2023-05-08T03:43:46.626Z,27.58
2023-05-08T03:44:46.738Z,27.56
2023-05-08T03:45:46.724Z,27.60
2023-05-08T03:46:46.902Z,27.62
2023-05-08T03:47:47.415Z,27.62
2023-05-08T03:48:46.896Z,27.61
2023-05-08T03:49:46.929Z,27.65
2023-05-08T03:50:46.997Z,27.65
2023-05-08T03:51:47.051Z,27.58
2023-05-08T03:52:47.114Z,27.59
2023-05-08T03:53:47.158Z,27.61
2023-05-08T03:54:47.239Z,27.62
2023-05-08T03:55:47.279Z,27.61
2023-05-08T03:56:47.322Z,27.65
2023-05-08T03:57:47.358Z,27.62
2023-05-08T03:58:47.396Z,27.58
2023-05-08T03:59:47.438Z,27.61
2023-05-08T04:00:47.550Z,27.62
2023-05-08T04:01:47.588Z,27.62
2023-05-08T04:02:47.694Z,27.62
2023-05-08T04:03:47.836Z,27.62
2023-05-08T04:04:47.732Z,27.71
2023-05-08T04:05:47.757Z,27.71
2023-05-08T04:06:50.602Z,27.82
2023-05-08T04:07:47.851Z,27.85
2023-05-08T04:08:47.836Z,27.88
2023-05-08T04:09:47.785Z,27.96
2023-05-08T04:10:47.787Z,28.01
2023-05-08T04:11:47.776Z,28.02
2023-05-08T04:12:47.804Z,28.07
2023-05-08T04:13:47.756Z,28.16
2023-05-08T04:14:47.765Z,28.20
2023-05-08T04:15:47.794Z,28.23
2023-05-08T04:16:47.812Z,28.27
2023-05-08T04:17:47.813Z,28.30
2023-05-08T04:18:47.754Z,28.35
2023-05-08T04:19:47.746Z,28.39
2023-05-08T04:20:47.727Z,28.43
2023-05-08T04:21:47.723Z,28.50
2023-05-08T04:22:47.733Z,28.55
2023-05-08T04:23:47.732Z,28.60
2023-05-08T04:24:47.707Z,28.60
2023-05-08T04:25:47.710Z,28.66
2023-05-08T04:26:47.693Z,28.67
2023-05-08T04:27:47.673Z,28.73
2023-05-08T04:28:47.786Z,28.71
2023-05-08T04:29:47.731Z,28.83
2023-05-08T04:30:47.658Z,28.83
2023-05-08T04:31:47.731Z,28.83
2023-05-08T04:32:47.681Z,28.83
2023-05-08T04:33:47.653Z,28.85
2023-05-08T04:34:47.664Z,28.86
2023-05-08T04:35:47.621Z,28.85
2023-05-08T04:36:47.637Z,28.86
2023-05-08T04:37:47.638Z,28.88
2023-05-08T04:38:47.656Z,28.91
2023-05-08T04:39:48.396Z,28.83
2023-05-08T04:40:47.607Z,28.83
2023-05-08T04:41:47.646Z,28.81
2023-05-08T04:42:47.831Z,28.81
2023-05-08T04:43:47.583Z,28.83
2023-05-08T04:44:47.635Z,28.81
2023-05-08T04:45:47.615Z,28.83
2023-05-08T04:46:47.540Z,28.80
2023-05-08T04:47:47.566Z,28.81
2023-05-08T04:48:47.577Z,28.80
2023-05-08T04:49:47.659Z,28.78
2023-05-08T04:50:47.731Z,28.78
2023-05-08T04:51:47.742Z,28.78
2023-05-08T04:52:47.843Z,28.74
2023-05-08T04:53:47.855Z,28.75
2023-05-08T04:54:47.896Z,28.71
2023-05-08T04:55:48.008Z,28.73
2023-05-08T04:56:48.080Z,28.75
2023-05-08T04:57:48.112Z,28.68
2023-05-08T04:58:48.185Z,28.70
2023-05-08T04:59:48.231Z,28.73
2023-05-08T05:00:48.320Z,28.71
2023-05-08T05:01:48.438Z,28.71
2023-05-08T05:02:48.559Z,28.67
2023-05-08T05:03:48.541Z,28.69
2023-05-08T05:04:48.581Z,28.67
2023-05-08T05:05:48.654Z,28.64
2023-05-08T05:06:48.701Z,28.62
2023-05-08T05:07:48.759Z,28.68
2023-05-08T05:08:48.808Z,28.64
2023-05-08T05:09:48.839Z,28.67
2023-05-08T05:10:48.913Z,28.68
2023-05-08T05:11:48.937Z,28.68
2023-05-08T05:12:49.044Z,28.68
2023-05-08T05:13:49.113Z,28.68
2023-05-08T05:14:49.102Z,28.67
2023-05-08T05:15:49.248Z,28.67
2023-05-08T05:16:49.271Z,28.72
2023-05-08T05:17:49.318Z,28.72
2023-05-08T05:18:49.346Z,28.72
2023-05-08T05:19:50.400Z,28.70
2023-05-08T05:20:49.471Z,28.73
2023-05-08T05:21:49.512Z,28.66
2023-05-08T05:22:49.698Z,28.70
2023-05-08T05:23:49.581Z,28.67
2023-05-08T05:24:49.630Z,28.72
2023-05-08T05:25:49.642Z,28.72
2023-05-08T05:26:49.697Z,28.74
2023-05-08T05:27:49.702Z,28.74
2023-05-08T05:28:49.773Z,28.77
2023-05-08T05:29:49.780Z,28.76
2023-05-08T05:30:49.832Z,28.80
2023-05-08T05:31:49.954Z,28.98
2023-05-08T05:32:49.902Z,29.16
2023-05-08T05:33:49.877Z,29.37
2023-05-08T05:34:49.866Z,29.67
2023-05-08T05:35:49.869Z,30.09
2023-05-08T05:36:50.733Z,30.29
2023-05-08T05:37:49.876Z,30.51
2023-05-08T05:38:49.907Z,30.83
2023-05-08T05:39:49.893Z,31.57
2023-05-08T05:40:49.941Z,31.42
2023-05-08T05:41:49.973Z,31.41
2023-05-08T05:42:49.933Z,31.81
2023-05-08T05:43:50.040Z,32.29
2023-05-08T05:44:50.034Z,32.79
2023-05-08T05:45:50.062Z,32.69
2023-05-08T05:46:50.104Z,32.75
2023-05-08T05:47:50.737Z,32.82
2023-05-08T05:48:50.183Z,33.34
2023-05-08T05:49:50.215Z,33.54
2023-05-08T05:50:50.219Z,33.85
2023-05-08T05:51:50.280Z,33.80
2023-05-08T05:52:50.289Z,33.42
2023-05-08T05:53:50.296Z,33.38
2023-05-08T05:54:50.337Z,33.47
2023-05-08T05:55:50.343Z,33.41
2023-05-08T05:56:50.439Z,33.59
2023-05-08T05:57:50.408Z,33.51
2023-05-08T05:58:50.439Z,33.58
2023-05-08T05:59:50.432Z,33.44
2023-05-08T06:00:50.398Z,33.57
2023-05-08T06:01:50.493Z,33.57
2023-05-08T06:02:50.553Z,33.63
2023-05-08T06:03:50.444Z,33.63
2023-05-08T06:04:50.426Z,33.72
2023-05-08T06:05:50.402Z,33.72
2023-05-08T06:06:50.483Z,33.70
2023-05-08T06:07:50.450Z,33.81
2023-05-08T06:08:50.416Z,33.94
2023-05-08T06:09:50.418Z,34.00
2023-05-08T06:10:50.478Z,33.93
2023-05-08T06:11:50.489Z,33.95
2023-05-08T06:12:50.544Z,33.83
2023-05-08T06:13:50.819Z,33.88
2023-05-08T06:14:50.546Z,34.00
2023-05-08T06:15:50.572Z,34.05
2023-05-08T06:16:50.624Z,34.62
2023-05-08T06:17:50.652Z,34.21
2023-05-08T06:18:50.622Z,34.44
2023-05-08T06:19:50.710Z,34.18
2023-05-08T06:20:50.687Z,34.18
2023-05-08T06:21:50.680Z,34.17
2023-05-08T06:22:50.734Z,34.21
2023-05-08T06:23:50.849Z,34.21
2023-05-08T06:24:50.838Z,34.21
2023-05-08T06:25:50.948Z,34.19
2023-05-08T06:26:50.936Z,34.29
2023-05-08T06:27:51.040Z,34.27
2023-05-08T06:28:51.088Z,34.21
2023-05-08T06:29:51.152Z,34.53
2023-05-08T06:30:51.274Z,34.34
2023-05-08T06:31:51.268Z,34.28
2023-05-08T06:32:51.296Z,34.28
2023-05-08T06:33:52.120Z,34.36
2023-05-08T06:34:52.460Z,34.40
2023-05-08T06:35:51.499Z,34.30
2023-05-08T06:36:51.566Z,34.37
2023-05-08T06:37:51.644Z,34.29
2023-05-08T06:38:51.719Z,34.41
2023-05-08T06:40:03.905Z,34.28
2023-05-08T06:40:52.714Z,34.34
2023-05-08T06:41:51.739Z,34.44
2023-05-08T06:42:51.743Z,34.32
2023-05-08T06:43:51.765Z,34.38
2023-05-08T06:44:51.721Z,34.36
2023-05-08T06:45:51.828Z,34.35
2023-05-08T06:46:51.793Z,34.30
2023-05-08T06:47:51.739Z,34.01
2023-05-08T06:48:51.802Z,34.24
2023-05-08T06:49:51.905Z,34.41
2023-05-08T06:50:51.928Z,34.37
2023-05-08T06:51:51.949Z,34.45
2023-05-08T06:52:52.028Z,34.49
2023-05-08T06:53:52.075Z,34.42
2023-05-08T06:54:52.130Z,34.44
2023-05-08T06:55:52.186Z,34.43
2023-05-08T06:56:52.217Z,34.43
2023-05-08T06:57:52.220Z,34.44
2023-05-08T06:59:04.545Z,34.38
2023-05-08T06:59:53.305Z,34.53
2023-05-08T07:00:52.237Z,34.50
2023-05-08T07:01:52.370Z,34.49
2023-05-08T07:02:52.374Z,34.47
2023-05-08T07:03:52.238Z,34.47
2023-05-08T07:04:52.293Z,34.65
2023-05-08T07:05:52.211Z,34.60
2023-05-08T07:06:52.215Z,34.52
2023-05-08T07:07:52.255Z,34.61
2023-05-08T07:08:52.340Z,34.57
2023-05-08T07:09:52.389Z,34.57
2023-05-08T07:10:52.485Z,34.60
2023-05-08T07:11:52.519Z,34.51
2023-05-08T07:12:52.708Z,34.60
2023-05-08T07:13:52.694Z,34.59
2023-05-08T07:14:52.728Z,34.55
2023-05-08T07:15:52.828Z,34.57
2023-05-08T07:16:52.851Z,34.59
2023-05-08T07:17:52.994Z,34.59
2023-05-08T07:18:52.937Z,34.66
2023-05-08T07:19:52.981Z,34.63
2023-05-08T07:20:53.059Z,34.67
2023-05-08T07:21:53.121Z,34.62
2023-05-08T07:22:53.763Z,34.68
2023-05-08T07:23:53.258Z,34.71
2023-05-08T07:24:53.269Z,34.74
2023-05-08T07:25:53.330Z,34.70
2023-05-08T07:26:53.420Z,34.86
2023-05-08T07:27:53.433Z,35.19
2023-05-08T07:28:53.502Z,34.78
2023-05-08T07:29:53.564Z,35.03
2023-05-08T07:30:53.639Z,34.93
2023-05-08T07:31:53.771Z,34.75
2023-05-08T07:32:53.833Z,34.07
2023-05-08T07:33:53.777Z,34.13
2023-05-08T07:34:53.808Z,34.56
2023-05-08T07:35:53.745Z,34.54
2023-05-08T07:36:53.754Z,34.57
2023-05-08T07:37:53.808Z,34.42
2023-05-08T07:38:53.818Z,34.58
2023-05-08T07:39:53.812Z,34.59
2023-05-08T07:40:53.840Z,34.66
2023-05-08T07:41:53.826Z,34.73
2023-05-08T07:42:53.837Z,34.71
2023-05-08T07:43:53.885Z,34.74
2023-05-08T07:44:55.178Z,34.78
2023-05-08T07:45:53.879Z,34.79
2023-05-08T07:46:53.912Z,34.74
2023-05-08T07:47:53.898Z,34.69
2023-05-08T07:48:53.867Z,34.70
2023-05-08T07:49:53.867Z,34.69
2023-05-08T07:50:53.888Z,34.70
2023-05-08T07:51:53.964Z,34.65
2023-05-08T07:52:53.914Z,34.60
2023-05-08T07:53:53.860Z,34.55
2023-05-08T07:54:53.873Z,34.57
2023-05-08T07:55:53.875Z,34.56
2023-05-08T07:56:53.881Z,34.50
2023-05-08T07:57:53.839Z,34.51
2023-05-08T07:58:53.909Z,34.50
2023-05-08T07:59:53.899Z,34.48
2023-05-08T08:00:53.836Z,34.42
2023-05-08T08:01:54.029Z,34.45
2023-05-08T08:02:54.076Z,34.47
2023-05-08T08:03:53.956Z,34.45
2023-05-08T08:04:53.884Z,34.40
2023-05-08T08:05:53.864Z,34.36
2023-05-08T08:06:53.819Z,34.43
2023-05-08T08:07:53.873Z,34.40
2023-05-08T08:08:53.903Z,34.43
2023-05-08T08:09:53.977Z,34.43
2023-05-08T08:10:53.990Z,34.36
2023-05-08T08:11:54.029Z,34.43
2023-05-08T08:12:54.073Z,34.43
2023-05-08T08:13:54.107Z,34.42
2023-05-08T08:14:54.117Z,34.38
2023-05-08T08:15:54.128Z,34.43
2023-05-08T08:16:54.198Z,34.36
2023-05-08T08:17:54.264Z,34.39
2023-05-08T08:18:54.192Z,34.27
2023-05-08T08:19:54.205Z,34.34
2023-05-08T08:20:54.207Z,34.35
2023-05-08T08:21:54.207Z,34.37
2023-05-08T08:22:54.209Z,34.42
2023-05-08T08:23:54.198Z,34.35
2023-05-08T08:24:55.405Z,34.32
2023-05-08T08:25:54.216Z,34.29
2023-05-08T08:26:54.299Z,35.17
2023-05-08T08:27:54.302Z,34.82
2023-05-08T08:28:54.383Z,34.67
2023-05-08T08:30:01.535Z,34.54
2023-05-08T08:30:55.456Z,34.51
2023-05-08T08:31:54.444Z,34.51
2023-05-08T08:32:54.458Z,34.51
2023-05-08T08:33:54.519Z,34.47
2023-05-08T08:34:54.398Z,34.47
2023-05-08T08:35:54.402Z,34.43
2023-05-08T08:36:54.396Z,34.35
2023-05-08T08:37:54.412Z,34.39
2023-05-08T08:38:54.377Z,34.33
2023-05-08T08:39:54.372Z,34.29
2023-05-08T08:40:54.402Z,34.36
2023-05-08T08:41:54.349Z,37.77
2023-05-08T08:42:54.354Z,36.31
2023-05-08T08:43:54.309Z,36.11
2023-05-08T08:44:54.367Z,36.04
2023-05-08T08:45:54.351Z,36.19
2023-05-08T08:46:54.365Z,38.44
2023-05-08T08:47:54.343Z,39.58
2023-05-08T08:48:54.354Z,38.45
2023-05-08T08:49:54.376Z,37.75
2023-05-08T08:50:54.280Z,38.36
2023-05-08T08:51:54.341Z,36.69
2023-05-08T08:52:54.336Z,36.22
2023-05-08T08:53:54.290Z,36.18
2023-05-08T08:54:54.284Z,36.36
2023-05-08T08:55:54.234Z,37.59
2023-05-08T08:56:54.274Z,36.16
2023-05-08T08:57:54.250Z,36.01
2023-05-08T08:58:54.245Z,35.97
2023-05-08T08:59:54.236Z,35.79
2023-05-08T09:00:54.236Z,35.80
2023-05-08T09:01:54.317Z,35.82
2023-05-08T09:02:54.285Z,36.13
2023-05-08T09:03:54.369Z,36.07
2023-05-08T09:04:54.200Z,35.78
2023-05-08T09:05:54.329Z,36.17
2023-05-08T09:06:54.224Z,36.02
2023-05-08T09:07:54.307Z,36.70
2023-05-08T09:08:54.223Z,36.58
2023-05-08T09:09:54.285Z,36.10
2023-05-08T09:10:54.300Z,35.83
2023-05-08T09:11:54.220Z,35.94
2023-05-08T09:12:54.319Z,35.74
2023-05-08T09:13:54.230Z,35.64
2023-05-08T09:14:56.178Z,35.94
2023-05-08T09:15:54.434Z,35.92
2023-05-08T09:16:54.244Z,36.15
2023-05-08T09:17:54.287Z,36.23
2023-05-08T09:18:54.244Z,36.10
2023-05-08T09:19:54.237Z,35.61
2023-05-08T09:20:54.250Z,35.49
2023-05-08T09:21:54.318Z,35.29
2023-05-08T09:22:54.202Z,35.23
2023-05-08T09:23:54.216Z,35.10
2023-05-08T09:24:54.282Z,35.19
2023-05-08T09:25:54.246Z,35.22
2023-05-08T09:26:54.236Z,35.29
2023-05-08T09:27:54.521Z,35.23
2023-05-08T09:28:54.531Z,35.15
2023-05-08T09:29:54.206Z,35.49
2023-05-08T09:30:54.266Z,35.90
2023-05-08T09:31:54.357Z,35.69
2023-05-08T09:32:54.311Z,35.71
2023-05-08T09:33:54.291Z,35.78
2023-05-08T09:34:54.380Z,35.64
2023-05-08T09:35:54.351Z,35.73
2023-05-08T09:36:54.422Z,36.07
2023-05-08T09:37:57.203Z,36.17
2023-05-08T09:38:54.438Z,35.91
2023-05-08T09:39:54.409Z,36.14
2023-05-08T09:40:54.401Z,36.32
2023-05-08T09:41:54.420Z,36.35
2023-05-08T09:42:54.400Z,36.21
2023-05-08T09:43:54.437Z,36.29
2023-05-08T09:44:54.368Z,36.24
2023-05-08T09:45:54.348Z,36.40
2023-05-08T09:46:54.365Z,36.18
2023-05-08T09:47:54.358Z,36.06
2023-05-08T09:48:54.321Z,36.20
2023-05-08T09:49:54.370Z,36.11
2023-05-08T09:50:54.297Z,36.01
2023-05-08T09:51:54.390Z,36.05
2023-05-08T09:52:54.319Z,36.09
2023-05-08T09:53:54.394Z,36.15
2023-05-08T09:54:54.322Z,36.00
2023-05-08T09:55:55.062Z,36.08
2023-05-08T09:56:54.301Z,36.07
2023-05-08T09:57:54.321Z,36.10
2023-05-08T09:58:54.297Z,36.20
2023-05-08T09:59:54.321Z,36.05
2023-05-08T10:00:54.297Z,36.18
2023-05-08T10:01:54.276Z,36.08
2023-05-08T10:02:54.278Z,36.09
2023-05-08T10:03:54.262Z,36.11
2023-05-08T10:04:54.250Z,36.24
2023-05-08T10:05:54.246Z,36.30
2023-05-08T10:06:56.363Z,36.32
2023-05-08T10:07:54.619Z,36.27
2023-05-08T10:08:54.223Z,36.32
2023-05-08T10:09:54.335Z,36.39
2023-05-08T10:10:54.319Z,36.63
2023-05-08T10:11:54.401Z,36.44
2023-05-08T10:12:54.476Z,36.59
2023-05-08T10:13:54.540Z,36.54
2023-05-08T10:14:55.230Z,36.58
2023-05-08T10:15:54.629Z,36.56
2023-05-08T10:16:54.798Z,36.43
2023-05-08T10:17:54.769Z,36.57
2023-05-08T10:18:54.799Z,36.52
2023-05-08T10:19:54.812Z,36.50
2023-05-08T10:20:54.928Z,36.46
2023-05-08T10:21:54.920Z,36.56
2023-05-08T10:22:55.018Z,36.43
2023-05-08T10:23:55.078Z,36.43
2023-05-08T10:24:55.158Z,36.65
2023-05-08T10:25:55.305Z,36.80
2023-05-08T10:27:05.618Z,37.12
2023-05-08T10:27:56.305Z,36.75
2023-05-08T10:28:55.251Z,36.59
2023-05-08T10:29:55.589Z,36.23
2023-05-08T10:30:55.253Z,35.92
2023-05-08T10:31:55.236Z,35.90
2023-05-08T10:32:55.405Z,35.63
2023-05-08T10:33:55.205Z,35.58
2023-05-08T10:34:55.283Z,35.38
2023-05-08T10:35:55.266Z,35.62
2023-05-08T10:36:55.316Z,35.36
2023-05-08T10:37:55.323Z,35.41
2023-05-08T10:38:55.331Z,35.67
2023-05-08T10:39:55.319Z,35.66
2023-05-08T10:40:55.334Z,35.66
2023-05-08T10:41:55.431Z,35.70
2023-05-08T10:42:55.314Z,35.70
2023-05-08T10:43:55.317Z,35.68
2023-05-08T10:44:55.371Z,35.67
2023-05-08T10:45:55.399Z,35.62
2023-05-08T10:46:55.339Z,35.62
2023-05-08T10:47:55.361Z,35.59
2023-05-08T10:48:55.363Z,35.59
2023-05-08T10:49:55.309Z,35.53
2023-05-08T10:50:55.308Z,35.50
2023-05-08T10:51:55.367Z,35.43
2023-05-08T10:52:55.328Z,35.43
2023-05-08T10:53:55.288Z,35.36
2023-05-08T10:54:55.298Z,35.44
2023-05-08T10:55:55.309Z,35.41
2023-05-08T10:56:55.314Z,35.32
2023-05-08T10:57:55.340Z,35.33
2023-05-08T10:58:55.286Z,35.26
2023-05-08T10:59:55.332Z,35.25
2023-05-08T11:00:55.323Z,35.26
2023-05-08T11:01:55.399Z,35.24
2023-05-08T11:02:55.321Z,35.16
2023-05-08T11:03:55.890Z,35.17
2023-05-08T11:04:55.405Z,35.05
2023-05-08T11:05:55.307Z,35.09
2023-05-08T11:06:55.311Z,35.12
2023-05-08T11:07:55.332Z,35.04
2023-05-08T11:08:55.318Z,34.98
2023-05-08T11:09:55.334Z,34.93
2023-05-08T11:10:55.307Z,34.90
2023-05-08T11:11:55.328Z,34.89
2023-05-08T11:12:55.471Z,34.85
2023-05-08T11:13:55.391Z,34.77
2023-05-08T11:14:55.355Z,34.77
2023-05-08T11:15:55.374Z,34.74
2023-05-08T11:16:55.346Z,34.59
2023-05-08T11:17:55.370Z,34.64
2023-05-08T11:18:55.348Z,34.58
2023-05-08T11:19:55.364Z,34.67
2023-05-08T11:20:55.362Z,34.69
2023-05-08T11:21:55.343Z,34.65
2023-05-08T11:22:55.383Z,34.69
2023-05-08T11:23:55.354Z,34.68
2023-05-08T11:24:55.335Z,34.65
2023-05-08T11:25:55.321Z,34.66
2023-05-08T11:26:55.347Z,34.61
2023-05-08T11:27:55.340Z,34.51
2023-05-08T11:28:55.354Z,34.51
2023-05-08T11:29:55.441Z,34.51
2023-05-08T11:30:55.357Z,34.48
2023-05-08T11:31:55.412Z,34.44
2023-05-08T11:32:55.422Z,34.43
2023-05-08T11:33:55.359Z,34.33
2023-05-08T11:34:55.380Z,34.34
2023-05-08T11:35:55.490Z,34.19
2023-05-08T11:36:55.420Z,34.27
2023-05-08T11:37:55.410Z,34.22
2023-05-08T11:38:56.371Z,34.18
2023-05-08T11:39:55.436Z,34.13
2023-05-08T11:40:55.444Z,34.10
2023-05-08T11:41:55.460Z,34.04
2023-05-08T11:42:55.446Z,33.92
2023-05-08T11:43:55.497Z,33.91
2023-05-08T11:44:55.556Z,33.92
2023-05-08T11:45:55.508Z,33.83
2023-05-08T11:46:55.597Z,33.79
2023-05-08T11:47:55.573Z,33.78
2023-05-08T11:48:55.560Z,33.79
2023-05-08T11:49:55.570Z,33.69
2023-05-08T11:50:55.570Z,33.69
2023-05-08T11:51:55.586Z,33.73
2023-05-08T11:52:55.624Z,33.82
2023-05-08T11:53:55.691Z,33.66
2023-05-08T11:54:55.695Z,33.62
2023-05-08T11:55:55.722Z,33.55
2023-05-08T11:56:55.709Z,33.49
2023-05-08T11:57:55.714Z,33.46
2023-05-08T11:58:55.729Z,33.43
2023-05-08T11:59:55.768Z,33.49
2023-05-08T12:00:55.788Z,33.46
2023-05-08T12:02:07.583Z,33.42
2023-05-08T12:02:56.840Z,33.44
2023-05-08T12:03:55.962Z,33.39
2023-05-08T12:04:55.777Z,33.42
2023-05-08T12:05:55.716Z,33.32
2023-05-08T12:06:55.678Z,33.30
2023-05-08T12:07:55.917Z,33.25
2023-05-08T12:08:55.708Z,33.26
2023-05-08T12:09:55.653Z,33.26
2023-05-08T12:10:55.652Z,33.27
2023-05-08T12:11:55.638Z,33.22
2023-05-08T12:12:55.659Z,33.21
2023-05-08T12:13:55.634Z,33.14
2023-05-08T12:14:55.645Z,33.15
2023-05-08T12:15:55.641Z,33.19
2023-05-08T12:16:55.626Z,33.18
2023-05-08T12:17:55.618Z,33.09
2023-05-08T12:18:55.612Z,32.98
2023-05-08T12:19:55.597Z,33.04
2023-05-08T12:20:55.572Z,33.13
2023-05-08T12:21:55.574Z,33.11
2023-05-08T12:22:55.560Z,33.11
2023-05-08T12:23:55.552Z,33.09
2023-05-08T12:24:55.537Z,33.05
2023-05-08T12:25:55.722Z,32.98
2023-05-08T12:26:55.544Z,33.05
2023-05-08T12:27:55.522Z,33.09
2023-05-08T12:28:55.515Z,33.08
2023-05-08T12:29:55.535Z,33.08
2023-05-08T12:30:55.557Z,33.02
2023-05-08T12:31:55.501Z,32.97
2023-05-08T12:32:55.558Z,32.92
2023-05-08T12:33:55.476Z,32.88
2023-05-08T12:34:55.507Z,32.95
2023-05-08T12:35:55.453Z,32.99
2023-05-08T12:36:55.474Z,32.95
2023-05-08T12:37:55.492Z,32.84
2023-05-08T12:38:55.457Z,32.96
2023-05-08T12:39:55.434Z,32.92
2023-05-08T12:40:55.475Z,32.89
2023-05-08T12:41:55.471Z,32.84
2023-05-08T12:42:55.465Z,32.86
2023-05-08T12:43:55.472Z,32.84
2023-05-08T12:44:55.469Z,32.75
2023-05-08T12:45:55.483Z,32.88
2023-05-08T12:46:55.700Z,32.89
2023-05-08T12:47:55.505Z,32.82
2023-05-08T12:48:55.497Z,32.88
2023-05-08T12:49:55.633Z,32.82
2023-05-08T12:50:55.458Z,32.80
2023-05-08T12:51:55.471Z,32.78
2023-05-08T12:52:55.439Z,32.69